Marion, Indiana
Current Conditions -  °F | °C
As of 11:35 PM on Friday 24 Oct 2014 (Local Time) from KMZZ Reporting Station
Clear Clear  
Wind Chill: 47°   Ceiling: Unl
Heat Index: 49°   Visibility: 7mi
Dew Point: 46°   Wind: 5mph
Humidity: 89%   Direction: 190°S
Pressure: 30.01"   Gusts: NA
Location:  40.56°N, 85.66°W
Report Text: KMZZ 250335Z AUTO 19004KT 7SM CLR 10/08 A3001 RMK AO2 T00950077
Loading
Personal Weather Stations






























Interactive Weather Map
Tropical Storm Tracking
New forecast layout! Learn more

10-Day Weather Forecast

Advertisements
Track Severe Weather on mobile